Airport View

Enter AWOS ICAO identifier for current METAR.

ex. KFNL

KADG 261153Z AUTO 23006KT 10SM CLR 20/17 A3005 RMK AO2 SLP172 70002 T02000167 10211 20178 53026 TSNO

26 Jun 2019 12:30

Frequency: 118.375

Phone: 517-265-9089

Other Area AWOS: KUSE - KTOL - KJYM - KTTF

TAF KTOL 261126Z 2612/2712 24007KT P6SM SCT250